Map

Track Data

SID SEASON NUMBER BASIN SUBBASIN NAME ISO_TIME NATURE LAT LON WMO_WIND WMO_PRES WMO_AGENCY TRACK_TYPE DIST2LAND LANDFALL IFLAG USA_AGENCY USA_ATCF_ID USA_LAT USA_LON USA_RECORD USA_STATUS USA_WIND USA_PRES USA_SSHS USA_R34_NE USA_R34_SE USA_R34_SW USA_R34_NW USA_R50_NE USA_R50_SE USA_R50_SW USA_R50_NW USA_R64_NE USA_R64_SE USA_R64_SW USA_R64_NW USA_POCI USA_ROCI USA_RMW USA_EYE TOKYO_LAT TOKYO_LON TOKYO_GRADE TOKYO_WIND TOKYO_PRES TOKYO_R50_DIR TOKYO_R50_LONG TOKYO_R50_SHORT TOKYO_R30_DIR TOKYO_R30_LONG TOKYO_R30_SHORT TOKYO_LAND CMA_LAT CMA_LON CMA_CAT CMA_WIND CMA_PRES HKO_LAT HKO_LON HKO_CAT HKO_WIND HKO_PRES NEWDELHI_LAT NEWDELHI_LON NEWDELHI_GRADE NEWDELHI_WIND NEWDELHI_PRES NEWDELHI_CI NEWDELHI_DP NEWDELHI_POCI REUNION_LAT REUNION_LON REUNION_TYPE REUNION_WIND REUNION_PRES REUNION_TNUM REUNION_CI REUNION_RMW REUNION_R34_NE REUNION_R34_SE REUNION_R34_SW REUNION_R34_NW REUNION_R50_NE REUNION_R50_SE REUNION_R50_SW REUNION_R50_NW REUNION_R64_NE REUNION_R64_SE REUNION_R64_SW REUNION_R64_NW BOM_LAT BOM_LON BOM_TYPE BOM_WIND BOM_PRES BOM_TNUM BOM_CI BOM_RMW BOM_R34_NE BOM_R34_SE BOM_R34_SW BOM_R34_NW BOM_R50_NE BOM_R50_SE BOM_R50_SW BOM_R50_NW BOM_R64_NE BOM_R64_SE BOM_R64_SW BOM_R64_NW BOM_ROCI BOM_POCI BOM_EYE BOM_POS_METHOD BOM_PRES_METHOD NADI_LAT NADI_LON NADI_CAT NADI_WIND NADI_PRES WELLINGTON_LAT WELLINGTON_LON WELLINGTON_WIND WELLINGTON_PRES DS824_LAT DS824_LON DS824_STAGE DS824_WIND DS824_PRES TD9636_LAT TD9636_LON TD9636_STAGE TD9636_WIND TD9636_PRES TD9635_LAT TD9635_LON TD9635_WIND TD9635_PRES TD9635_ROCI NEUMANN_LAT NEUMANN_LON NEUMANN_CLASS NEUMANN_WIND NEUMANN_PRES MLC_LAT MLC_LON MLC_CLASS MLC_WIND MLC_PRES USA_GUST BOM_GUST BOM_GUST_PER REUNION_GUST REUNION_GUST_PER USA_SEAHGT USA_SEARAD_NE USA_SEARAD_SE USA_SEARAD_SW USA_SEARAD_NW STORM_SPEED STORM_DIR
2000018S15190 2000 3 SP MM NOT_NAMED 2000-01-17 21:00:00 NR -15.0000 -170.000 main 272 228 ________O_____ -1 -15.0000 -170.000 25 1006 9 322
2000018S15190 2000 3 SP MM NOT_NAMED 2000-01-18 00:00:00 NR -14.6361 -170.289 main 223 181 ________P_____ -1 -14.6361 -170.289 9 322
2000018S15190 2000 3 SP MM NOT_NAMED 2000-01-18 03:00:00 NR -14.2828 -170.586 main 181 142 ________P_____ -1 -14.2828 -170.586 9 319
2000018S15190 2000 3 SP MM NOT_NAMED 2000-01-18 06:00:00 NR -13.9512 -170.899 main 142 108 ________P_____ -1 -13.9512 -170.899 9 315
2000018S15190 2000 3 SP MM NOT_NAMED 2000-01-18 09:00:00 NR -13.6523 -171.236 main 108 73 ________P_____ -1 -13.6523 -171.236 9 309
2000018S15190 2000 3 SP MM NOT_NAMED 2000-01-18 12:00:00 NR -13.3969 -171.606 main 73 54 ________P_____ -1 -13.3969 -171.606 9 301
2000018S15190 2000 3 SP MM NOT_NAMED 2000-01-18 15:00:00 NR -13.1959 -172.018 main 54 44 ________P_____ -1 -13.1959 -172.018 9 292
2000018S15190 2000 3 SP MM NOT_NAMED 2000-01-18 18:00:00 NR -13.0600 -172.479 main 44 44 ________P_____ -1 -13.0600 -172.479 10 282
2000018S15190 2000 3 SP MM NOT_NAMED 2000-01-18 21:00:00 NR -13.0000 -173.000 main 60 60 ________O_____ -1 -13.0000 -173.000 25 1004 11 272
2000018S15190 2000 3 SP MM NOT_NAMED 2000-01-19 00:00:00 NR -13.0213 -173.578 main 103 103 ________P_____ -1 -13.0213 -173.578 11 265
2000018S15190 2000 3 SP MM NOT_NAMED 2000-01-19 03:00:00 NR -13.1096 -174.171 main 158 158 ________P_____ -1 -13.1096 -174.171 11 259
2000018S15190 2000 3 SP MM NOT_NAMED 2000-01-19 06:00:00 NR -13.2457 -174.724 main 208 208 ________P_____ -1 -13.2457 -174.724 10 253
2000018S15190 2000 3 SP MM NOT_NAMED 2000-01-19 09:00:00 NR -13.4112 -175.184 main 259 259 ________P_____ -1 -13.4112 -175.184 8 246
2000018S15190 2000 3 SP MM NOT_NAMED 2000-01-19 12:00:00 NR -13.5876 -175.496 main 292 292 ________P_____ -1 -13.5876 -175.496 5 230
2000018S15190 2000 3 SP MM NOT_NAMED 2000-01-19 15:00:00 NR -13.7570 -175.606 main 304 295 ________P_____ -1 -13.7570 -175.606 3 172
2000018S15190 2000 3 SP MM NOT_NAMED 2000-01-19 18:00:00 NR -13.9009 -175.459 main 295 244 ________P_____ -1 -13.9009 -175.459 6 112
2000018S15190 2000 3 SP MM NOT_NAMED 2000-01-19 21:00:00 NR -14.0000 -175.000 main 244 151 ________O_____ -1 -14.0000 -175.000 25 1004 14 95
2000018S15190 2000 3 SP MM NOT_NAMED 2000-01-20 00:00:00 NR -14.0206 -174.024 main 141 48 ________P_____ -1 -14.0206 -174.024 25 1003 20 90
2000018S15190 2000 3 SP MM NOT_NAMED 2000-01-20 03:00:00 NR -14.0159 -172.928 main 39 22 ________P_____ -1 -14.0159 -172.928 25 1003 20 89
2000018S15190 2000 3 SP MM NOT_NAMED 2000-01-20 06:00:00 NR -14.0000 -172.000 main 31 31 ________O_____ -1 -14.0000 -172.000 25 1003 13 88
2000018S15190 2000 3 SP MM NOT_NAMED 2000-01-20 09:00:00 NR -13.9644 -171.560 main 68 68 ________P_____ -1 -13.9644 -171.560 6 83
2000018S15190 2000 3 SP MM NOT_NAMED 2000-01-20 12:00:00 NR -13.9269 -171.421 main 87 76 ________P_____ -1 -13.9269 -171.421 1 44
2000018S15190 2000 3 SP MM NOT_NAMED 2000-01-20 15:00:00 NR -13.9074 -171.501 main 76 55 ________P_____ -1 -13.9074 -171.501 3 270
2000018S15190 2000 3 SP MM NOT_NAMED 2000-01-20 18:00:00 NR -13.9254 -171.721 main 55 31 ________P_____ -1 -13.9254 -171.721 5 259
2000018S15190 2000 3 SP MM NOT_NAMED 2000-01-20 21:00:00 NR -14.0000 -172.000 main 31 31 ________O_____ -1 -14.0000 -172.000 25 1000 4 236
2000018S15190 2000 3 SP MM NOT_NAMED 2000-01-21 00:00:00 NR -14.1736 -172.101 main 46 46 ________P_____ -1 -14.1736 -172.101 5 210
2000018S15190 2000 3 SP MM NOT_NAMED 2000-01-21 03:00:00 NR -14.4146 -172.245 main 67 67 ________P_____ -1 -14.4146 -172.245 6 211
2000018S15190 2000 3 SP MM NOT_NAMED 2000-01-21 06:00:00 NR -14.7091 -172.428 main 100 100 ________P_____ -1 -14.7091 -172.428 7 212
2000018S15190 2000 3 SP MM NOT_NAMED 2000-01-21 09:00:00 NR -15.0433 -172.646 main 134 134 ________P_____ -1 -15.0433 -172.646 8 213
2000018S15190 2000 3 SP MM NOT_NAMED 2000-01-21 12:00:00 NR -15.4034 -172.897 main 182 182 ________P_____ -1 -15.4034 -172.897 9 215
2000018S15190 2000 3 SP MM NOT_NAMED 2000-01-21 15:00:00 NR -15.7754 -173.175 main 233 233 ________P_____ -1 -15.7754 -173.175 9 217
2000018S15190 2000 3 SP MM NOT_NAMED 2000-01-21 18:00:00 NR -16.1455 -173.478 main 275 275 ________P_____ -1 -16.1455 -173.478 9 220
2000018S15190 2000 3 SP MM NOT_NAMED 2000-01-21 21:00:00 NR -16.5000 -173.800 main 328 328 ________O_____ -1 -16.5000 -173.800 25 1000 10 227
2000018S15190 2000 3 SP MM NOT_NAMED 2000-01-22 00:00:00 NR -16.8163 -174.221 main 377 377 ________P_____ -1 -16.8163 -174.221 11 233
2000018S15190 2000 3 SP MM NOT_NAMED 2000-01-22 03:00:00 NR -17.1282 -174.680 main 432 432 ________P_____ -1 -17.1282 -174.680 11 235
2000018S15190 2000 3 SP MM NOT_NAMED 2000-01-22 06:00:00 NR -17.4297 -175.153 main 489 488 ________P_____ -1 -17.4297 -175.153 11 237
2000018S15190 2000 3 SP MM NOT_NAMED 2000-01-22 09:00:00 NR -17.7156 -175.612 main 488 452 ________P_____ -1 -17.7156 -175.612 10 237
2000018S15190 2000 3 SP MM NOT_NAMED 2000-01-22 12:00:00 NR -17.9806 -176.033 main 455 422 ________P_____ -1 -17.9806 -176.033 9 236
2000018S15190 2000 3 SP MM NOT_NAMED 2000-01-22 15:00:00 NR -18.2195 -176.389 main 422 407 ________P_____ -1 -18.2195 -176.389 7 233
2000018S15190 2000 3 SP MM NOT_NAMED 2000-01-22 18:00:00 NR -18.4276 -176.653 main 402 398 ________P_____ -1 -18.4276 -176.653 5 226
2000018S15190 2000 3 SP MM NOT_NAMED 2000-01-22 21:00:00 NR -18.6000 -176.800 main 403 403 ________O_____ -1 -18.6000 -176.800 25 1004 2 0
2000018S15190 2000 3 SP MM NOT_NAMED 2000-01-23 00:00:00 NR -18.5930 -176.660 main 412 412 ________P_____ -1 -18.5930 -176.660 4 81
2000018S15190 2000 3 SP MM NOT_NAMED 2000-01-23 03:00:00 NR -18.5400 -176.401 main 435 435 ________P_____ -1 -18.5400 -176.401 6 79
2000018S15190 2000 3 SP MM NOT_NAMED 2000-01-23 06:00:00 NR -18.4812 -176.072 main 464 464 ________P_____ -1 -18.4812 -176.072 7 83
2000018S15190 2000 3 SP MM NOT_NAMED 2000-01-23 09:00:00 NR -18.4569 -175.720 main 503 503 ________P_____ -1 -18.4569 -175.720 6 92
2000018S15190 2000 3 SP MM NOT_NAMED 2000-01-23 12:00:00 NR -18.5078 -175.393 main 533 533 ________P_____ -1 -18.5078 -175.393 6 112
2000018S15190 2000 3 SP MM NOT_NAMED 2000-01-23 15:00:00 NR -18.6751 -175.137 main 570 570 ________P_____ -1 -18.6751 -175.137 6 143
2000018S15190 2000 3 SP MM NOT_NAMED 2000-01-23 18:00:00 NR -19.0000 -175.000 main 593 593 ________O_____ -1 -19.0000 -175.000 30 998 9 174
2000018S15190 2000 3 SP MM NOT_NAMED 2000-01-23 21:00:00 NR -19.5525 -175.047 main 623 614 ________P_____ -1 -19.5525 -175.047 27 998 11 185
2000018S15190 2000 3 SP MM NOT_NAMED 2000-01-24 00:00:00 NR -20.1000 -175.100 main 643 643 ________O_____ -1 -20.1000 -175.100 25 998 9 182
2000018S15190 2000 3 SP MM NOT_NAMED 2000-01-24 03:00:00 NR -20.4799 -175.095 main 669 669 ________P_____ -1 -20.4799 -175.095 30 997 7 172
2000018S15190 2000 3 SP MM NOT_NAMED 2000-01-24 06:00:00 NR -20.8000 -175.000 main 698 698 ________O_____ -1 -20.8000 -175.000 35 997 7 158
2000018S15190 2000 3 SP MM NOT_NAMED 2000-01-24 09:00:00 NR -21.1273 -174.817 main 736 736 ________P_____ -1 -21.1273 -174.817 35 997 8 146
2000018S15190 2000 3 SP MM NOT_NAMED 2000-01-24 12:00:00 NR -21.5000 -174.500 main 788 788 ________O_____ -1 -21.5000 -174.500 35 997 12 140
2000018S15190 2000 3 SP MM NOT_NAMED 2000-01-24 15:00:00 NR -22.0530 -173.979 main 871 871 ________P_____ -1 -22.0530 -173.979 35 996 14 137
2000018S15190 2000 3 SP MM NOT_NAMED 2000-01-24 18:00:00 NR -22.5000 -173.500 main 939 939 ________O_____ -1 -22.5000 -173.500 35 996 7 130
2000018S15190 2000 3 SP MM NOT_NAMED 2000-01-24 21:00:00 NR -22.5221 -173.384 main 947 947 ________P_____ -1 -22.5221 -173.384 35 995 2 90
2000018S15190 2000 3 SP MM NOT_NAMED 2000-01-25 00:00:00 NR -22.5000 -173.300 main 955 955 ________O_____ -1 -22.5000 -173.300 35 995 5 126
2000018S15190 2000 3 SP MM NOT_NAMED 2000-01-25 03:00:00 NR -22.8202 -172.938 main 1007 1007 ________P_____ -1 -22.8202 -172.938 35 995 10 134
2000018S15190 2000 3 SP MM NOT_NAMED 2000-01-25 06:00:00 NR -23.2000 -172.500 main 1051 1051 ________O_____ -1 -23.2000 -172.500 35 996 9 128
2000018S15190 2000 3 SP MM NOT_NAMED 2000-01-25 09:00:00 NR -23.3923 -172.149 main 1074 1074 ________P_____ -1 -23.3923 -172.149 35 996 8 122
2000018S15190 2000 3 SP MM NOT_NAMED 2000-01-25 12:00:00 NR -23.6000 -171.800 main 1097 1097 ________O_____ -1 -23.6000 -171.800 35 997 8 135
2000018S15190 2000 3 SP MM NOT_NAMED 2000-01-25 15:00:00 NR -23.9839 -171.497 main 1143 1143 ________P_____ -1 -23.9839 -171.497 35 997 11 138
2000018S15190 2000 3 SP MM NOT_NAMED 2000-01-25 18:00:00 NR -24.4000 -171.000 main 1192 1192 ________O_____ -1 -24.4000 -171.000 35 997 15 117
2000018S15190 2000 3 SP MM NOT_NAMED 2000-01-25 21:00:00 NR -24.6670 -170.022 main 1240 1240 ________P_____ -1 -24.6670 -170.022 37 997 19 108
2000018S15190 2000 3 SP MM NOT_NAMED 2000-01-26 00:00:00 NR -25.0000 -169.000 40 998 wellington main 1296 1296 ________O_____ -1 -25.0000 -169.000 40 998 18 120
2000018S15190 2000 3 SP MM NOT_NAMED 2000-01-26 03:00:00 NR -25.5549 -168.326 main 1381 1381 ________P_____ -1 -25.5549 -168.326 40 999 16 138
2000018S15190 2000 3 SP MM NOT_NAMED 2000-01-26 05:00:00 NR -26.0000 -168.000 40 1000 wellington main 1433 ________O_____ -1 -26.0000 -168.000 40 1000 16 147

Digital Typhoon Data and Search

About IBTrACS Database

This database is a web-friendly format of International Best Track Archive for Climate Stewardship (IBTrACS), a global best track data archive curated by NOAA dating back to 1842.

Updated: 2021-12-03